createdAt,value
2022-08-29T00:00:30.676Z,5.60
2022-08-29T00:03:00.053Z,4.78
2022-08-29T00:05:30.895Z,4.45
2022-08-29T00:07:59.389Z,4.57
2022-08-29T00:10:26.821Z,6.18
2022-08-29T00:12:54.629Z,5.53
2022-08-29T00:15:25.239Z,6.95
2022-08-29T00:17:52.269Z,6.45
2022-08-29T00:20:25.325Z,6.93
2022-08-29T00:23:02.566Z,6.53
2022-08-29T00:25:29.537Z,6.50
2022-08-29T00:27:56.195Z,6.90
2022-08-29T00:30:23.739Z,6.65
2022-08-29T00:32:51.857Z,6.35
2022-08-29T00:35:26.293Z,6.50
2022-08-29T00:37:54.800Z,6.20
2022-08-29T00:40:27.938Z,7.18
2022-08-29T00:42:54.677Z,6.90
2022-08-29T00:45:21.943Z,6.20
2022-08-29T00:47:59.959Z,6.43
2022-08-29T00:50:29.593Z,6.25
2022-08-29T00:52:57.440Z,6.47
2022-08-29T00:55:26.610Z,6.40
2022-08-29T00:57:59.181Z,6.30
2022-08-29T01:00:27.313Z,6.68
2022-08-29T01:02:54.674Z,6.50
2022-08-29T01:05:22.702Z,5.60
2022-08-29T01:07:50.293Z,6.45
2022-08-29T01:10:35.742Z,6.35
2022-08-29T01:13:06.244Z,6.60
2022-08-29T01:15:33.997Z,6.53
2022-08-29T01:18:01.456Z,6.15
2022-08-29T01:21:00.918Z,6.28
2022-08-29T01:23:36.057Z,5.75
2022-08-29T01:26:04.254Z,6.50
2022-08-29T01:28:34.449Z,6.78
2022-08-29T01:31:04.078Z,6.15
2022-08-29T01:33:42.074Z,6.32
2022-08-29T01:36:10.808Z,6.85
2022-08-29T01:38:38.485Z,7.32
2022-08-29T01:41:05.955Z,6.25
2022-08-29T01:43:43.539Z,5.75
2022-08-29T01:46:12.051Z,6.90
2022-08-29T01:48:40.898Z,6.30
2022-08-29T01:51:07.995Z,6.65
2022-08-29T01:53:36.253Z,7.85
2022-08-29T01:56:17.209Z,7.90
2022-08-29T01:58:45.373Z,7.25
2022-08-29T02:01:14.581Z,7.60
2022-08-29T02:03:42.012Z,6.80
2022-08-29T02:06:11.413Z,7.03
2022-08-29T02:08:40.295Z,8.15
2022-08-29T02:13:40.245Z,6.45
2022-08-29T02:16:07.185Z,6.28
2022-08-29T02:18:33.932Z,6.90
2022-08-29T02:21:01.365Z,6.80
2022-08-29T02:23:31.191Z,7.05
2022-08-29T02:25:58.761Z,7.53
2022-08-29T02:28:25.485Z,7.75
2022-08-29T02:30:56.741Z,7.32
2022-08-29T02:33:24.037Z,8.27
2022-08-29T02:35:51.024Z,7.32
2022-08-29T02:38:18.054Z,6.60
2022-08-29T02:40:45.411Z,7.30
2022-08-29T02:43:12.683Z,6.88
2022-08-29T02:45:41.635Z,7.30
2022-08-29T02:50:35.593Z,7.00
2022-08-29T02:53:02.509Z,6.95
2022-08-29T02:55:29.367Z,5.90
2022-08-29T02:57:56.076Z,6.63
2022-08-29T03:00:26.110Z,6.07
2022-08-29T03:02:54.821Z,5.82
2022-08-29T03:05:24.537Z,6.78
2022-08-29T03:07:52.393Z,5.45
2022-08-29T03:10:20.230Z,6.18
2022-08-29T03:12:47.883Z,6.32
2022-08-29T03:15:15.388Z,6.43
2022-08-29T03:17:42.249Z,7.80
2022-08-29T03:20:10.748Z,7.63
2022-08-29T03:22:38.639Z,6.55
2022-08-29T03:25:06.528Z,6.57
2022-08-29T03:27:33.694Z,7.43
2022-08-29T03:30:01.021Z,6.47
2022-08-29T03:32:28.280Z,7.53
2022-08-29T03:34:55.042Z,6.55
2022-08-29T03:37:21.725Z,6.53
2022-08-29T03:39:51.106Z,7.43
2022-08-29T03:42:17.823Z,6.30
2022-08-29T03:44:44.594Z,7.57
2022-08-29T03:47:11.652Z,6.97
2022-08-29T03:49:38.420Z,7.30
2022-08-29T03:52:06.397Z,6.90
2022-08-29T03:54:33.401Z,7.32
2022-08-29T03:57:00.134Z,6.82
2022-08-29T03:59:26.874Z,6.72
2022-08-29T04:01:53.679Z,7.20
2022-08-29T04:04:39.241Z,6.80
2022-08-29T04:07:10.042Z,6.07
2022-08-29T04:09:37.225Z,6.20
2022-08-29T04:12:04.269Z,7.25
2022-08-29T04:14:32.494Z,7.32
2022-08-29T04:16:59.253Z,6.88
2022-08-29T04:19:25.907Z,6.90
2022-08-29T04:21:52.606Z,6.97
2022-08-29T04:24:19.753Z,7.72
2022-08-29T04:26:46.615Z,7.45
2022-08-29T04:29:14.038Z,5.97
2022-08-29T04:31:42.185Z,6.45
2022-08-29T04:34:10.955Z,7.82
2022-08-29T04:36:39.636Z,7.88
2022-08-29T04:39:06.595Z,7.38
2022-08-29T04:41:33.738Z,8.10
2022-08-29T04:44:01.369Z,8.88
2022-08-29T04:46:28.239Z,11.15
2022-08-29T04:48:55.149Z,8.30
2022-08-29T04:51:22.398Z,9.23
2022-08-29T04:53:51.115Z,8.40
2022-08-29T04:58:45.538Z,8.73
2022-08-29T05:01:17.301Z,7.35
2022-08-29T05:03:44.366Z,8.82
2022-08-29T05:06:12.948Z,9.45
2022-08-29T05:08:41.396Z,10.45
2022-08-29T05:11:12.197Z,8.77
2022-08-29T05:13:39.069Z,8.63
2022-08-29T05:16:11.549Z,8.80
2022-08-29T05:18:39.362Z,9.90
2022-08-29T05:21:06.608Z,9.02
2022-08-29T05:23:33.426Z,10.48
2022-08-29T05:26:02.166Z,9.02
2022-08-29T05:28:30.596Z,11.85
2022-08-29T05:30:57.769Z,10.50
2022-08-29T05:33:24.559Z,11.25
2022-08-29T05:35:51.247Z,9.48
2022-08-29T05:38:18.104Z,9.73
2022-08-29T05:40:44.956Z,10.15
2022-08-29T05:43:11.799Z,9.23
2022-08-29T05:45:39.605Z,11.85
2022-08-29T05:48:08.023Z,9.32
2022-08-29T05:50:42.630Z,10.45
2022-08-29T05:53:13.461Z,9.88
2022-08-29T05:55:44.511Z,11.63
2022-08-29T05:58:12.446Z,13.05
2022-08-29T06:00:40.887Z,10.93
2022-08-29T06:05:34.440Z,13.95
2022-08-29T06:08:01.598Z,12.63
2022-08-29T06:10:28.748Z,14.73
2022-08-29T06:12:55.528Z,16.00
2022-08-29T06:15:22.649Z,17.17
2022-08-29T06:17:49.636Z,21.52
2022-08-29T06:20:16.314Z,19.73
2022-08-29T06:22:43.050Z,19.35
2022-08-29T06:25:34.955Z,19.17
2022-08-29T06:27:56.996Z,20.90
2022-08-29T06:30:23.705Z,20.40
2022-08-29T06:32:50.501Z,20.52
2022-08-29T06:35:17.250Z,21.42
2022-08-29T06:37:44.022Z,20.27
2022-08-29T06:40:11.235Z,16.92
2022-08-29T06:42:37.960Z,16.67
2022-08-29T06:45:06.092Z,15.48
2022-08-29T06:47:32.767Z,15.35
2022-08-29T06:49:59.469Z,15.90
2022-08-29T06:52:27.817Z,16.05
2022-08-29T06:54:54.602Z,14.73
2022-08-29T06:57:21.338Z,14.65
2022-08-29T06:59:48.058Z,15.90
2022-08-29T07:02:14.804Z,15.93
2022-08-29T07:04:41.613Z,20.20
2022-08-29T07:07:08.933Z,17.15
2022-08-29T07:09:35.722Z,13.52
2022-08-29T07:12:02.643Z,12.43
2022-08-29T07:14:29.337Z,13.45
2022-08-29T07:16:56.760Z,11.40
2022-08-29T07:19:23.553Z,11.73
2022-08-29T07:21:53.559Z,9.02
2022-08-29T07:24:25.085Z,9.18
2022-08-29T07:26:52.166Z,7.57
2022-08-29T07:29:20.769Z,14.00
2022-08-29T07:34:15.026Z,10.55
2022-08-29T07:36:41.875Z,10.32
2022-08-29T07:39:16.357Z,7.85
2022-08-29T07:41:44.174Z,7.28
2022-08-29T07:44:12.128Z,7.38
2022-08-29T07:46:40.048Z,7.35
2022-08-29T07:49:07.243Z,6.60
2022-08-29T07:51:34.775Z,5.82
2022-08-29T07:54:01.875Z,6.28
2022-08-29T07:56:37.955Z,5.15
2022-08-29T07:59:06.266Z,6.38
2022-08-29T08:01:33.645Z,6.15
2022-08-29T08:04:00.370Z,5.45
2022-08-29T08:06:27.643Z,5.65
2022-08-29T08:08:54.970Z,6.30
2022-08-29T08:11:23.282Z,5.50
2022-08-29T08:13:50.022Z,5.22
2022-08-29T08:16:19.022Z,6.18
2022-08-29T08:18:45.960Z,5.28
2022-08-29T08:21:13.255Z,5.53
2022-08-29T08:23:40.832Z,4.53
2022-08-29T08:26:08.613Z,5.13
2022-08-29T08:28:35.682Z,5.55
2022-08-29T08:31:06.583Z,5.85
2022-08-29T08:33:35.671Z,5.35
2022-08-29T08:36:04.041Z,5.38
2022-08-29T08:38:31.686Z,5.88
2022-08-29T08:41:05.699Z,6.07
2022-08-29T08:43:54.478Z,5.00
2022-08-29T08:46:36.659Z,5.55
2022-08-29T08:49:07.336Z,5.25
2022-08-29T08:51:35.660Z,5.47
2022-08-29T08:54:04.486Z,5.68
2022-08-29T08:56:31.120Z,5.32
2022-08-29T08:59:11.444Z,5.63
2022-08-29T09:01:43.471Z,5.32
2022-08-29T09:04:29.269Z,5.30
2022-08-29T09:07:08.785Z,5.75
2022-08-29T09:10:19.941Z,6.15
2022-08-29T09:13:11.504Z,5.70
2022-08-29T09:15:46.178Z,5.57
2022-08-29T09:18:36.249Z,5.18
2022-08-29T09:21:39.581Z,5.03
2022-08-29T09:24:03.333Z,5.93
2022-08-29T09:26:30.078Z,5.65
2022-08-29T09:28:58.941Z,5.15
2022-08-29T09:31:28.786Z,5.40
2022-08-29T09:33:59.702Z,5.90
2022-08-29T09:36:46.051Z,5.95
2022-08-29T09:39:20.355Z,5.45
2022-08-29T09:41:57.566Z,6.03
2022-08-29T09:44:32.232Z,5.43
2022-08-29T09:49:31.280Z,5.53
2022-08-29T09:52:09.894Z,5.75
2022-08-29T09:54:36.693Z,6.25
2022-08-29T09:57:18.283Z,5.38
2022-08-29T10:00:07.076Z,5.10
2022-08-29T10:02:44.120Z,4.55
2022-08-29T10:05:27.951Z,5.18
2022-08-29T10:07:54.703Z,6.03
2022-08-29T10:10:22.612Z,6.18
2022-08-29T10:13:01.587Z,6.32
2022-08-29T10:15:50.537Z,5.60
2022-08-29T10:18:24.555Z,5.82
2022-08-29T10:21:05.295Z,5.45
2022-08-29T10:23:40.854Z,5.13
2022-08-29T10:26:24.918Z,5.60
2022-08-29T10:29:31.843Z,5.78
2022-08-29T10:32:19.935Z,5.78
2022-08-29T10:35:07.901Z,5.28
2022-08-29T10:37:43.629Z,4.60
2022-08-29T10:40:19.053Z,5.47
2022-08-29T10:42:47.736Z,5.38
2022-08-29T10:48:14.300Z,5.05
2022-08-29T10:50:48.956Z,6.38
2022-08-29T10:53:26.484Z,5.20
2022-08-29T10:56:08.564Z,6.45
2022-08-29T10:58:53.948Z,5.13
2022-08-29T11:01:26.394Z,6.45
2022-08-29T11:04:23.435Z,5.85
2022-08-29T11:07:18.032Z,5.68
2022-08-29T11:10:01.057Z,5.63
2022-08-29T11:12:41.181Z,6.05
2022-08-29T11:15:17.408Z,5.32
2022-08-29T11:17:48.754Z,4.68
2022-08-29T11:20:22.457Z,5.00
2022-08-29T11:22:59.449Z,5.97
2022-08-29T11:25:27.609Z,4.88
2022-08-29T11:28:13.652Z,5.88
2022-08-29T11:30:59.918Z,5.57
2022-08-29T11:33:52.074Z,5.57
2022-08-29T11:36:37.170Z,6.25
2022-08-29T11:39:18.227Z,5.97
2022-08-29T11:41:52.335Z,6.25
2022-08-29T11:44:41.121Z,5.32
2022-08-29T11:47:33.893Z,6.20
2022-08-29T11:50:16.904Z,5.65
2022-08-29T11:52:59.266Z,5.88
2022-08-29T11:55:36.065Z,6.15
2022-08-29T11:58:14.857Z,6.05
2022-08-29T12:00:45.519Z,5.53
2022-08-29T12:03:34.440Z,5.30
2022-08-29T12:06:05.801Z,6.20
2022-08-29T12:09:13.582Z,5.53
2022-08-29T12:11:59.423Z,6.20
2022-08-29T12:14:47.832Z,6.53
2022-08-29T12:17:17.657Z,6.43
2022-08-29T12:20:02.681Z,5.50
2022-08-29T12:23:03.879Z,6.30
2022-08-29T12:25:41.376Z,7.10
2022-08-29T12:28:21.061Z,5.78
2022-08-29T12:31:03.367Z,6.28
2022-08-29T12:34:01.755Z,6.25
2022-08-29T12:36:31.702Z,5.80
2022-08-29T12:39:07.413Z,6.35
2022-08-29T12:41:46.646Z,5.53
2022-08-29T12:44:16.762Z,6.47
2022-08-29T12:46:45.558Z,5.57
2022-08-29T12:49:24.478Z,6.35
2022-08-29T12:52:03.927Z,5.50
2022-08-29T12:54:35.486Z,4.82
2022-08-29T12:57:02.810Z,5.90
2022-08-29T12:59:30.107Z,6.55
2022-08-29T13:01:58.581Z,5.50
2022-08-29T13:04:32.249Z,5.75
2022-08-29T13:07:07.660Z,5.45
2022-08-29T13:09:39.516Z,4.40
2022-08-29T13:12:35.723Z,4.55
2022-08-29T13:15:02.341Z,4.97
2022-08-29T13:17:34.525Z,4.55
2022-08-29T13:20:43.155Z,4.75
2022-08-29T13:23:12.733Z,4.47
2022-08-29T13:25:57.783Z,4.88
2022-08-29T13:28:27.478Z,4.43
2022-08-29T13:31:06.167Z,5.25
2022-08-29T13:33:35.479Z,5.13
2022-08-29T13:36:28.291Z,5.65
2022-08-29T13:39:26.522Z,4.35
2022-08-29T13:42:02.245Z,4.78
2022-08-29T13:44:37.776Z,4.43
2022-08-29T13:47:16.705Z,4.80
2022-08-29T13:49:43.481Z,4.95
2022-08-29T13:52:13.920Z,4.57
2022-08-29T13:54:42.437Z,3.95
2022-08-29T13:57:20.036Z,4.47
2022-08-29T13:59:47.439Z,4.15
2022-08-29T14:02:15.163Z,5.18
2022-08-29T14:04:43.614Z,4.50
2022-08-29T14:07:16.447Z,4.95
2022-08-29T14:09:45.689Z,4.82
2022-08-29T14:12:14.171Z,4.57
2022-08-29T14:14:43.977Z,3.95
2022-08-29T14:17:18.120Z,4.20
2022-08-29T14:19:45.836Z,5.03
2022-08-29T14:22:12.625Z,3.60
2022-08-29T14:24:40.712Z,3.70
2022-08-29T14:27:07.860Z,4.20
2022-08-29T14:29:37.434Z,4.80
2022-08-29T14:32:04.306Z,4.72
2022-08-29T14:34:32.486Z,4.93
2022-08-29T14:37:00.824Z,5.65
2022-08-29T14:39:28.348Z,6.43
2022-08-29T14:41:55.501Z,5.03
2022-08-29T14:44:22.352Z,5.70
2022-08-29T14:46:49.947Z,6.15
2022-08-29T14:49:17.530Z,4.47
2022-08-29T14:51:47.225Z,4.82
2022-08-29T14:54:13.947Z,4.57
2022-08-29T14:56:48.680Z,5.03
2022-08-29T14:59:16.771Z,5.00
2022-08-29T15:01:43.484Z,5.22
2022-08-29T15:04:11.143Z,6.03
2022-08-29T15:06:38.432Z,4.57
2022-08-29T15:09:05.471Z,5.03
2022-08-29T15:11:32.345Z,4.70
2022-08-29T15:14:04.436Z,5.03
2022-08-29T15:16:32.216Z,5.72
2022-08-29T15:19:37.589Z,4.28
2022-08-29T15:21:45.728Z,5.25
2022-08-29T15:24:12.387Z,4.50
2022-08-29T15:26:39.330Z,4.90
2022-08-29T15:29:06.147Z,5.00
2022-08-29T15:31:33.113Z,4.28
2022-08-29T15:34:00.811Z,4.72
2022-08-29T15:36:28.463Z,4.93
2022-08-29T15:38:55.206Z,4.28
2022-08-29T15:41:21.956Z,4.50
2022-08-29T15:43:48.672Z,10.27
2022-08-29T15:46:15.463Z,4.82
2022-08-29T15:48:44.920Z,5.60
2022-08-29T15:51:11.738Z,5.75
2022-08-29T15:53:38.680Z,4.80
2022-08-29T15:56:05.630Z,6.25
2022-08-29T15:58:32.473Z,6.03
2022-08-29T16:00:59.473Z,5.63
2022-08-29T16:03:26.532Z,5.75
2022-08-29T16:05:53.457Z,6.45
2022-08-29T16:08:20.424Z,5.43
2022-08-29T16:10:54.522Z,5.97
2022-08-29T16:13:21.400Z,6.30
2022-08-29T16:15:49.266Z,6.70
2022-08-29T16:18:16.689Z,4.97
2022-08-29T16:20:44.290Z,5.35
2022-08-29T16:23:11.604Z,6.15
2022-08-29T16:25:39.622Z,6.78
2022-08-29T16:28:06.560Z,7.07
2022-08-29T16:30:33.628Z,6.28
2022-08-29T16:33:01.815Z,6.15
2022-08-29T16:35:28.549Z,6.07
2022-08-29T16:38:02.765Z,5.75
2022-08-29T16:43:15.307Z,6.10
2022-08-29T16:45:42.186Z,6.78
2022-08-29T16:48:15.468Z,6.25
2022-08-29T16:50:42.856Z,6.35
2022-08-29T16:53:09.950Z,6.28
2022-08-29T16:55:36.851Z,6.40
2022-08-29T16:58:22.162Z,7.32
2022-08-29T17:00:50.421Z,6.85
2022-08-29T17:03:20.218Z,6.47
2022-08-29T17:05:47.452Z,6.13
2022-08-29T17:08:14.237Z,6.45
2022-08-29T17:10:41.488Z,6.82
2022-08-29T17:13:08.432Z,6.97
2022-08-29T17:15:35.715Z,8.10
2022-08-29T17:18:02.772Z,7.53
2022-08-29T17:20:35.417Z,6.53
2022-08-29T17:23:05.295Z,6.72
2022-08-29T17:25:37.562Z,6.70
2022-08-29T17:28:17.581Z,7.18
2022-08-29T17:33:15.664Z,7.07
2022-08-29T17:35:43.557Z,5.93
2022-08-29T17:38:10.753Z,5.60
2022-08-29T17:40:38.200Z,6.85
2022-08-29T17:43:07.278Z,6.45
2022-08-29T17:45:34.963Z,8.73
2022-08-29T17:48:05.419Z,8.40
2022-08-29T17:50:33.245Z,7.93
2022-08-29T17:53:00.898Z,8.13
2022-08-29T17:55:29.916Z,9.57
2022-08-29T17:57:57.294Z,9.30
2022-08-29T18:00:25.203Z,7.95
2022-08-29T18:02:52.360Z,9.60
2022-08-29T18:05:19.482Z,9.25
2022-08-29T18:07:46.215Z,7.78
2022-08-29T18:10:15.237Z,7.15
2022-08-29T18:12:51.927Z,7.28
2022-08-29T18:15:22.233Z,7.82
2022-08-29T18:17:51.744Z,7.03
2022-08-29T18:20:21.806Z,6.30
2022-08-29T18:22:50.028Z,7.80
2022-08-29T18:25:22.323Z,7.47
2022-08-29T18:27:50.477Z,7.00
2022-08-29T18:30:18.084Z,8.45
2022-08-29T18:32:45.389Z,7.32
2022-08-29T18:35:14.216Z,8.07
2022-08-29T18:37:41.429Z,9.02
2022-08-29T18:40:09.861Z,7.43
2022-08-29T18:42:40.996Z,8.30
2022-08-29T18:45:10.110Z,6.63
2022-08-29T18:47:37.402Z,7.05
2022-08-29T18:50:25.130Z,8.90
2022-08-29T18:52:53.779Z,8.25
2022-08-29T18:55:23.062Z,10.05
2022-08-29T18:57:51.122Z,7.05
2022-08-29T19:00:19.363Z,6.75
2022-08-29T19:02:47.303Z,7.55
2022-08-29T19:05:17.145Z,8.27
2022-08-29T19:07:44.241Z,7.65
2022-08-29T19:10:11.916Z,11.27
2022-08-29T19:12:39.759Z,7.32
2022-08-29T19:15:08.432Z,9.05
2022-08-29T19:17:35.738Z,9.38
2022-08-29T19:20:21.422Z,8.48
2022-08-29T19:22:48.727Z,10.13
2022-08-29T19:25:15.995Z,7.15
2022-08-29T19:27:44.226Z,9.95
2022-08-29T19:30:13.903Z,8.63
2022-08-29T19:32:41.387Z,9.60
2022-08-29T19:35:11.305Z,6.55
2022-08-29T19:37:39.770Z,6.25
2022-08-29T19:40:09.214Z,7.30
2022-08-29T19:42:37.772Z,6.20
2022-08-29T19:45:09.938Z,6.13
2022-08-29T19:47:37.808Z,6.05
2022-08-29T19:53:26.909Z,6.28
2022-08-29T19:56:24.451Z,6.10
2022-08-29T20:04:08.430Z,6.85
2022-08-29T20:11:23.631Z,6.53
2022-08-29T20:13:55.286Z,6.43
2022-08-29T20:16:25.136Z,6.30
2022-08-29T20:18:52.722Z,5.65
2022-08-29T20:21:21.241Z,6.13
2022-08-29T20:23:52.845Z,5.55
2022-08-29T20:26:29.467Z,8.45
2022-08-29T20:28:58.571Z,7.20
2022-08-29T20:31:26.406Z,7.10
2022-08-29T20:33:53.886Z,8.02
2022-08-29T20:36:47.455Z,11.15
2022-08-29T20:39:21.363Z,5.55
2022-08-29T20:41:54.040Z,6.55
2022-08-29T20:44:27.300Z,7.20
2022-08-29T20:46:59.720Z,7.25
2022-08-29T20:49:27.573Z,8.68
2022-08-29T20:51:55.026Z,6.82
2022-08-29T20:54:24.122Z,6.43
2022-08-29T20:56:52.298Z,6.55
2022-08-29T20:59:20.982Z,6.88
2022-08-29T21:01:51.253Z,6.18
2022-08-29T21:07:09.671Z,6.53
2022-08-29T21:09:38.153Z,6.95
2022-08-29T21:12:05.401Z,6.45
2022-08-29T21:14:33.259Z,7.00
2022-08-29T21:17:01.034Z,6.72
2022-08-29T21:19:32.325Z,6.15
2022-08-29T21:22:00.546Z,7.38
2022-08-29T21:24:39.690Z,7.68
2022-08-29T21:27:13.487Z,7.53
2022-08-29T21:29:50.878Z,7.00
2022-08-29T21:32:22.948Z,7.80
2022-08-29T21:34:50.301Z,8.55
2022-08-29T21:37:17.438Z,6.80
2022-08-29T21:39:48.171Z,6.75
2022-08-29T21:42:15.323Z,6.82
2022-08-29T21:44:42.987Z,6.88
2022-08-29T21:47:10.847Z,6.63
2022-08-29T21:49:39.844Z,6.20
2022-08-29T21:52:07.405Z,6.13
2022-08-29T21:54:34.453Z,6.32
2022-08-29T21:57:02.810Z,6.45
2022-08-29T21:59:33.696Z,6.15
2022-08-29T22:02:01.012Z,6.13
2022-08-29T22:04:35.956Z,6.30
2022-08-29T22:09:40.290Z,6.90
2022-08-29T22:12:07.645Z,6.10
2022-08-29T22:14:53.139Z,6.47
2022-08-29T22:17:20.214Z,6.82
2022-08-29T22:19:47.733Z,6.35
2022-08-29T22:22:14.745Z,7.50
2022-08-29T22:24:42.037Z,6.75
2022-08-29T22:27:09.075Z,6.15
2022-08-29T22:29:37.810Z,6.45
2022-08-29T22:32:05.190Z,6.65
2022-08-29T22:34:32.521Z,6.65
2022-08-29T22:36:59.444Z,5.95
2022-08-29T22:39:26.469Z,7.28
2022-08-29T22:41:53.987Z,6.70
2022-08-29T22:47:08.200Z,6.28
2022-08-29T22:49:35.407Z,6.50
2022-08-29T22:52:02.758Z,6.53
2022-08-29T22:54:35.789Z,6.90
2022-08-29T22:57:10.204Z,6.13
2022-08-29T22:59:37.999Z,6.53
2022-08-29T23:02:06.378Z,6.53
2022-08-29T23:04:33.704Z,6.22
2022-08-29T23:07:04.334Z,7.13
2022-08-29T23:09:35.544Z,6.43
2022-08-29T23:12:06.929Z,5.95
2022-08-29T23:14:38.483Z,6.30
2022-08-29T23:17:13.856Z,6.72
2022-08-29T23:19:41.528Z,5.88
2022-08-29T23:27:04.099Z,6.90
2022-08-29T23:29:33.019Z,6.10
2022-08-29T23:32:01.124Z,5.88
2022-08-29T23:34:28.581Z,5.47
2022-08-29T23:36:55.741Z,6.13
2022-08-29T23:39:22.893Z,6.20
2022-08-29T23:41:50.280Z,6.75
2022-08-29T23:44:17.744Z,5.97
2022-08-29T23:46:45.001Z,6.40
2022-08-29T23:49:12.167Z,5.80
2022-08-29T23:51:39.346Z,6.45
2022-08-29T23:54:06.289Z,6.43
2022-08-29T23:56:33.337Z,6.80
2022-08-29T23:59:00.745Z,6.53
